createdAt,value
2018-06-09T00:00:27.965Z,18.70
2018-06-09T00:02:56.318Z,18.70
2018-06-09T00:05:24.674Z,18.60
2018-06-09T00:07:52.986Z,18.60
2018-06-09T00:10:21.354Z,18.60
2018-06-09T00:12:49.661Z,18.50
2018-06-09T00:15:18.040Z,18.50
2018-06-09T00:17:46.517Z,18.40
2018-06-09T00:20:14.914Z,18.40
2018-06-09T00:22:43.248Z,18.30
2018-06-09T00:25:11.614Z,18.30
2018-06-09T00:27:39.974Z,18.20
2018-06-09T00:30:08.288Z,18.20
2018-06-09T00:32:36.767Z,18.10
2018-06-09T00:35:05.999Z,18.10
2018-06-09T00:37:34.338Z,18.10
2018-06-09T00:40:02.869Z,18.00
2018-06-09T00:42:31.227Z,18.10
2018-06-09T00:44:59.545Z,18.00
2018-06-09T00:49:56.636Z,17.90
2018-06-09T00:52:24.983Z,17.80
2018-06-09T00:54:53.491Z,17.80
2018-06-09T00:57:21.882Z,17.70
2018-06-09T00:59:50.267Z,17.70
2018-06-09T01:02:18.641Z,17.70
2018-06-09T01:04:46.953Z,17.70
2018-06-09T01:07:15.301Z,17.60
2018-06-09T01:09:43.707Z,17.60
2018-06-09T01:12:12.037Z,17.70
2018-06-09T01:14:40.387Z,17.70
2018-06-09T01:17:08.765Z,17.70
2018-06-09T01:19:37.132Z,17.60
2018-06-09T01:22:05.598Z,17.50
2018-06-09T01:24:33.960Z,17.50
2018-06-09T01:27:02.329Z,17.40
2018-06-09T01:29:30.687Z,17.40
2018-06-09T01:31:59.041Z,17.40
2018-06-09T01:34:27.380Z,17.40
2018-06-09T01:39:23.910Z,17.40
2018-06-09T01:41:53.405Z,17.40
2018-06-09T01:44:21.808Z,17.40
2018-06-09T01:46:50.188Z,17.30
2018-06-09T01:49:18.615Z,17.30
2018-06-09T01:51:47.007Z,17.30
2018-06-09T01:54:15.407Z,17.20
2018-06-09T01:56:43.788Z,17.20
2018-06-09T01:59:12.113Z,17.20
2018-06-09T02:01:40.476Z,17.10
2018-06-09T02:04:08.786Z,17.10
2018-06-09T02:06:37.163Z,17.20
2018-06-09T02:09:08.480Z,17.20
2018-06-09T02:11:36.807Z,17.10
2018-06-09T02:14:05.227Z,17.10
2018-06-09T02:16:33.610Z,17.10
2018-06-09T02:19:01.927Z,17.20
2018-06-09T02:21:30.287Z,17.20
2018-06-09T02:23:58.695Z,17.20
2018-06-09T02:26:27.063Z,17.20
2018-06-09T02:28:55.419Z,17.30
2018-06-09T02:31:23.816Z,17.20
2018-06-09T02:33:52.136Z,17.20
2018-06-09T02:38:48.704Z,17.40
2018-06-09T02:41:18.014Z,17.40
2018-06-09T02:43:46.397Z,17.40
2018-06-09T02:46:14.788Z,17.40
2018-06-09T02:48:43.103Z,17.50
2018-06-09T02:51:11.472Z,17.50
2018-06-09T02:53:39.980Z,17.50
2018-06-09T02:56:08.366Z,17.50
2018-06-09T02:58:36.688Z,17.50
2018-06-09T03:01:05.104Z,17.50
2018-06-09T03:03:33.460Z,17.50
2018-06-09T03:06:01.839Z,17.50
2018-06-09T03:08:30.271Z,17.60
2018-06-09T03:10:58.616Z,17.50
2018-06-09T03:13:26.980Z,17.60
2018-06-09T03:15:55.405Z,17.60
2018-06-09T03:18:23.759Z,17.50
2018-06-09T03:20:52.163Z,17.50
2018-06-09T03:23:20.533Z,17.50
2018-06-09T03:25:48.996Z,17.50
2018-06-09T03:28:17.384Z,17.50
2018-06-09T03:30:45.732Z,17.50
2018-06-09T03:33:14.060Z,17.50
2018-06-09T03:35:42.395Z,17.50
2018-06-09T03:38:10.751Z,17.60
2018-06-09T03:40:39.099Z,17.60
2018-06-09T03:43:07.445Z,17.60
2018-06-09T03:45:35.964Z,17.60
2018-06-09T03:48:04.691Z,17.60
2018-06-09T03:50:33.023Z,17.60
2018-06-09T03:53:01.375Z,17.60
2018-06-09T03:55:29.746Z,17.60
2018-06-09T03:57:58.071Z,17.60
2018-06-09T04:00:26.466Z,17.60
2018-06-09T04:02:54.803Z,17.60
2018-06-09T04:05:24.008Z,17.70
2018-06-09T04:07:52.724Z,17.70
2018-06-09T04:10:21.058Z,17.70
2018-06-09T04:12:49.391Z,17.70
2018-06-09T04:15:17.858Z,17.70
2018-06-09T04:17:46.181Z,17.60
2018-06-09T04:20:14.493Z,17.70
2018-06-09T04:22:42.893Z,17.80
2018-06-09T04:25:11.261Z,17.80
2018-06-09T04:27:39.626Z,17.80
2018-06-09T04:30:08.109Z,17.90
2018-06-09T04:32:36.429Z,17.90
2018-06-09T04:35:04.826Z,18.00
2018-06-09T04:37:33.481Z,18.00
2018-06-09T04:40:01.800Z,18.00
2018-06-09T04:42:30.105Z,18.00
2018-06-09T04:44:58.558Z,18.00
2018-06-09T04:47:26.886Z,18.00
2018-06-09T04:49:55.210Z,18.00
2018-06-09T04:52:23.542Z,18.10
2018-06-09T04:54:51.840Z,18.10
2018-06-09T04:57:20.678Z,18.00
2018-06-09T04:59:49.049Z,18.00
2018-06-09T05:02:17.392Z,18.00
2018-06-09T05:04:45.704Z,18.10
2018-06-09T05:07:14.173Z,18.00
2018-06-09T05:09:42.508Z,18.00
2018-06-09T05:19:35.033Z,18.00
2018-06-09T05:24:31.457Z,18.10
2018-06-09T05:26:59.904Z,18.10
2018-06-09T05:29:28.493Z,18.10
2018-06-09T05:31:56.894Z,18.10
2018-06-09T05:34:25.277Z,18.10
2018-06-09T05:36:53.637Z,18.00
2018-06-09T05:39:21.977Z,18.10
2018-06-09T05:41:50.326Z,18.10
2018-06-09T05:44:18.707Z,18.10
2018-06-09T05:46:47.061Z,18.10
2018-06-09T05:49:15.448Z,18.10
2018-06-09T05:51:43.790Z,18.30
2018-06-09T05:54:12.196Z,18.20
2018-06-09T05:56:40.513Z,18.30
2018-06-09T05:59:08.885Z,18.40
2018-06-09T06:01:37.216Z,18.50
2018-06-09T06:04:05.531Z,18.50
2018-06-09T06:06:33.998Z,18.50
2018-06-09T06:09:02.340Z,18.60
2018-06-09T06:11:30.727Z,18.60
2018-06-09T06:13:59.091Z,18.60
2018-06-09T06:16:27.446Z,18.60
2018-06-09T06:18:55.821Z,18.70
2018-06-09T06:21:24.201Z,18.70
2018-06-09T06:23:52.532Z,18.70
2018-06-09T06:26:20.882Z,18.80
2018-06-09T06:28:49.281Z,18.80
2018-06-09T06:31:17.685Z,18.90
2018-06-09T06:33:46.053Z,18.90
2018-06-09T06:36:14.621Z,19.00
2018-06-09T06:38:42.989Z,19.00
2018-06-09T06:41:11.418Z,19.00
2018-06-09T06:43:39.885Z,19.10
2018-06-09T06:46:08.213Z,19.20
2018-06-09T06:48:36.585Z,19.30
2018-06-09T06:51:05.143Z,19.50
2018-06-09T06:53:33.498Z,19.90
2018-06-09T06:56:01.824Z,20.30
2018-06-09T06:58:30.244Z,20.50
2018-06-09T07:05:54.774Z,21.20
2018-06-09T07:10:51.226Z,21.40
2018-06-09T07:13:19.553Z,21.50
2018-06-09T07:15:47.873Z,21.00
2018-06-09T07:18:16.257Z,21.20
2018-06-09T07:20:44.785Z,21.10
2018-06-09T07:23:13.126Z,21.30
2018-06-09T07:25:41.423Z,21.30
2018-06-09T07:28:09.826Z,21.60
2018-06-09T07:30:38.168Z,21.60
2018-06-09T07:33:06.623Z,21.70
2018-06-09T07:35:34.979Z,22.00
2018-06-09T07:38:03.283Z,22.30
2018-06-09T07:40:31.628Z,22.40
2018-06-09T07:42:59.969Z,22.60
2018-06-09T07:45:28.293Z,22.50
2018-06-09T07:47:56.611Z,22.40
2018-06-09T07:55:21.059Z,22.40
2018-06-09T07:57:49.549Z,22.40
2018-06-09T08:00:17.878Z,22.10
2018-06-09T08:02:46.165Z,22.00
2018-06-09T08:05:14.569Z,22.00
2018-06-09T08:07:42.884Z,22.20
2018-06-09T08:10:11.793Z,22.40
2018-06-09T08:12:40.195Z,22.20
2018-06-09T08:15:08.574Z,22.40
2018-06-09T08:17:36.898Z,23.10
2018-06-09T08:20:06.268Z,23.30
2018-06-09T08:25:02.658Z,23.00
2018-06-09T08:27:31.257Z,23.10
2018-06-09T08:29:59.583Z,23.00
2018-06-09T08:32:27.861Z,22.90
2018-06-09T08:34:56.266Z,23.10
2018-06-09T08:37:24.609Z,22.70
2018-06-09T08:39:52.952Z,23.30
2018-06-09T08:42:21.530Z,23.50
2018-06-09T08:44:49.850Z,23.20
2018-06-09T08:47:18.201Z,23.30
2018-06-09T08:49:46.672Z,23.30
2018-06-09T08:52:15.010Z,23.90
2018-06-09T08:54:43.354Z,24.30
2018-06-09T08:57:11.861Z,24.00
2018-06-09T08:59:40.163Z,24.40
2018-06-09T09:02:08.527Z,24.50
2018-06-09T09:04:36.904Z,24.60
2018-06-09T09:07:05.269Z,24.60
2018-06-09T09:09:33.621Z,24.70
2018-06-09T09:12:02.479Z,25.20
2018-06-09T09:14:30.798Z,24.70
2018-06-09T09:16:59.185Z,25.00
2018-06-09T09:19:27.629Z,24.90
2018-06-09T09:21:56.018Z,24.70
2018-06-09T09:24:24.434Z,24.80
2018-06-09T09:29:20.795Z,25.30
2018-06-09T09:31:49.104Z,25.00
2018-06-09T09:34:17.481Z,25.30
2018-06-09T09:36:46.847Z,25.40
2018-06-09T09:41:43.253Z,25.50
2018-06-09T09:44:11.585Z,25.60
2018-06-09T09:46:39.916Z,24.60
2018-06-09T09:49:08.454Z,24.70
2018-06-09T09:51:36.758Z,24.60
2018-06-09T09:54:05.189Z,24.10
2018-06-09T09:59:01.797Z,24.90
2018-06-09T10:01:30.182Z,25.30
2018-06-09T10:03:58.501Z,25.40
2018-06-09T10:06:26.816Z,25.40
2018-06-09T10:08:55.114Z,25.20
2018-06-09T10:11:23.449Z,25.50
2018-06-09T10:13:51.805Z,25.60
2018-06-09T10:16:20.141Z,25.90
2018-06-09T10:18:48.545Z,25.80
2018-06-09T10:21:16.883Z,25.80
2018-06-09T10:23:45.190Z,26.00
2018-06-09T10:26:13.632Z,26.20
2018-06-09T10:28:41.929Z,25.90
2018-06-09T10:31:10.311Z,26.30
2018-06-09T10:33:38.758Z,26.00
2018-06-09T10:36:07.210Z,25.90
2018-06-09T10:38:36.905Z,26.70
2018-06-09T10:41:05.273Z,27.00
2018-06-09T10:43:33.638Z,26.50
2018-06-09T10:46:01.972Z,26.90
2018-06-09T10:48:30.301Z,27.20
2018-06-09T10:50:58.661Z,27.00
2018-06-09T10:53:26.996Z,26.90
2018-06-09T10:55:55.437Z,26.60
2018-06-09T10:58:23.799Z,26.70
2018-06-09T11:00:52.094Z,26.70
2018-06-09T11:03:20.642Z,26.40
2018-06-09T11:05:48.958Z,26.90
2018-06-09T11:08:17.341Z,27.50
2018-06-09T11:10:45.769Z,27.30
2018-06-09T11:13:14.176Z,27.00
2018-06-09T11:15:42.461Z,27.30
2018-06-09T11:18:10.908Z,27.40
2018-06-09T11:20:39.480Z,27.30
2018-06-09T11:23:07.814Z,27.60
2018-06-09T11:25:36.371Z,27.20
2018-06-09T11:28:04.726Z,27.70
2018-06-09T11:30:33.110Z,27.60
2018-06-09T11:33:01.828Z,26.90
2018-06-09T11:35:30.140Z,26.30
2018-06-09T11:37:58.493Z,26.80
2018-06-09T11:40:27.025Z,27.20
2018-06-09T11:42:55.373Z,26.60
2018-06-09T11:45:23.785Z,27.00
2018-06-09T11:47:52.154Z,27.70
2018-06-09T11:50:20.478Z,26.70
2018-06-09T11:52:48.794Z,27.20
2018-06-09T11:55:17.181Z,27.30
2018-06-09T11:57:45.506Z,28.00
2018-06-09T12:00:13.894Z,27.10
2018-06-09T12:02:42.373Z,27.20
2018-06-09T12:05:10.754Z,27.70
2018-06-09T12:07:39.074Z,28.20
2018-06-09T12:10:07.829Z,28.10
2018-06-09T12:12:36.146Z,27.80
2018-06-09T12:15:04.584Z,28.30
2018-06-09T12:17:32.991Z,29.10
2018-06-09T12:20:01.629Z,29.40
2018-06-09T12:22:30.412Z,29.10
2018-06-09T12:24:58.973Z,28.70
2018-06-09T12:27:27.976Z,28.70
2018-06-09T12:29:56.304Z,27.10
2018-06-09T12:32:24.826Z,27.20
2018-06-09T12:34:53.157Z,28.10
2018-06-09T12:37:21.477Z,29.00
2018-06-09T12:39:49.981Z,29.30
2018-06-09T12:42:18.445Z,28.30
2018-06-09T12:44:46.794Z,28.70
2018-06-09T12:47:15.251Z,29.10
2018-06-09T12:49:43.569Z,29.00
2018-06-09T12:52:11.911Z,28.50
2018-06-09T12:54:40.721Z,28.10
2018-06-09T12:57:09.041Z,27.30
2018-06-09T12:59:37.419Z,27.10
2018-06-09T13:02:05.756Z,28.30
2018-06-09T13:04:34.049Z,28.70
2018-06-09T13:07:02.374Z,27.60
2018-06-09T13:09:30.765Z,27.10
2018-06-09T13:11:59.094Z,28.50
2018-06-09T13:14:27.431Z,29.40
2018-06-09T13:16:56.140Z,29.30
2018-06-09T13:19:24.556Z,27.50
2018-06-09T13:21:52.967Z,27.60
2018-06-09T13:24:21.439Z,28.00
2018-06-09T13:26:49.782Z,28.30
2018-06-09T13:31:47.730Z,28.10
2018-06-09T13:34:16.074Z,28.60
2018-06-09T13:36:44.425Z,28.10
2018-06-09T13:39:12.805Z,27.90
2018-06-09T13:41:41.143Z,28.70
2018-06-09T13:44:09.604Z,28.20
2018-06-09T13:46:37.996Z,27.80
2018-06-09T13:49:06.352Z,27.50
2018-06-09T13:51:35.039Z,27.10
2018-06-09T13:54:03.825Z,27.00
2018-06-09T13:56:32.151Z,26.90
2018-06-09T13:59:00.628Z,27.40
2018-06-09T14:01:29.031Z,27.80
2018-06-09T14:03:57.358Z,28.20
2018-06-09T14:06:25.805Z,28.70
2018-06-09T14:08:54.145Z,28.70
2018-06-09T14:11:22.445Z,28.50
2018-06-09T14:13:50.789Z,27.90
2018-06-09T14:16:19.114Z,27.50
2018-06-09T14:18:47.437Z,27.10
2018-06-09T14:21:15.758Z,26.80
2018-06-09T14:23:44.167Z,26.70
2018-06-09T14:26:12.479Z,26.60
2018-06-09T14:28:40.836Z,26.70
2018-06-09T14:31:09.237Z,26.70
2018-06-09T14:33:37.653Z,26.90
2018-06-09T14:36:05.962Z,26.90
2018-06-09T14:38:34.452Z,27.00
2018-06-09T14:41:02.780Z,27.10
2018-06-09T14:43:31.136Z,27.20
2018-06-09T14:45:59.633Z,27.70
2018-06-09T14:48:28.584Z,27.80
2018-06-09T14:50:56.924Z,26.80
2018-06-09T14:53:26.205Z,27.60
2018-06-09T14:55:54.578Z,27.90
2018-06-09T14:58:22.945Z,27.70
2018-06-09T15:00:51.366Z,27.40
2018-06-09T15:05:47.808Z,27.00
2018-06-09T15:08:16.238Z,27.00
2018-06-09T15:10:44.675Z,27.10
2018-06-09T15:13:13.051Z,27.20
2018-06-09T15:15:41.464Z,27.10
2018-06-09T15:18:09.857Z,27.10
2018-06-09T15:20:38.229Z,26.90
2018-06-09T15:23:06.758Z,27.10
2018-06-09T15:25:35.092Z,27.20
2018-06-09T15:28:03.395Z,27.00
2018-06-09T15:30:31.893Z,27.10
2018-06-09T15:33:00.618Z,27.10
2018-06-09T15:35:28.994Z,26.70
2018-06-09T15:37:57.465Z,26.60
2018-06-09T15:40:25.809Z,26.40
2018-06-09T15:42:54.117Z,26.10
2018-06-09T15:45:22.487Z,26.30
2018-06-09T15:47:51.042Z,26.20
2018-06-09T15:50:19.350Z,26.10
2018-06-09T15:52:47.749Z,26.00
2018-06-09T15:55:16.226Z,26.00
2018-06-09T16:00:12.719Z,25.90
2018-06-09T16:02:41.057Z,25.70
2018-06-09T16:07:37.725Z,25.60
2018-06-09T16:10:06.165Z,25.70
2018-06-09T16:12:34.445Z,25.60
2018-06-09T16:15:02.884Z,25.80
2018-06-09T16:17:31.181Z,25.80
2018-06-09T16:19:59.522Z,25.50
2018-06-09T16:22:28.051Z,25.60
2018-06-09T16:24:56.390Z,25.50
2018-06-09T16:27:25.381Z,25.50
2018-06-09T16:29:53.761Z,25.30
2018-06-09T16:32:22.146Z,25.50
2018-06-09T16:34:50.564Z,25.40
2018-06-09T16:37:18.880Z,25.20
2018-06-09T16:39:47.244Z,25.20
2018-06-09T16:42:15.629Z,25.20
2018-06-09T16:44:43.974Z,25.00
2018-06-09T16:47:12.408Z,24.70
2018-06-09T16:52:33.004Z,24.70
